createdAt,value
2019-05-10T00:01:57.182Z,29.63
2019-05-10T00:04:44.216Z,36.50
2019-05-10T00:07:31.386Z,32.73
2019-05-10T00:09:59.882Z,36.50
2019-05-10T00:12:46.017Z,30.37
2019-05-10T00:15:17.094Z,30.90
2019-05-10T00:17:46.774Z,32.80
2019-05-10T00:20:16.213Z,32.33
2019-05-10T00:22:45.666Z,31.40
2019-05-10T00:25:15.141Z,31.90
2019-05-10T00:27:44.609Z,28.50
2019-05-10T00:30:14.209Z,27.03
2019-05-10T00:32:43.701Z,28.97
2019-05-10T00:35:13.168Z,28.20
2019-05-10T00:37:42.624Z,30.33
2019-05-10T00:40:12.158Z,28.63
2019-05-10T00:42:41.636Z,28.67
2019-05-10T00:45:11.588Z,36.37
2019-05-10T00:47:41.085Z,31.97
2019-05-10T00:50:12.263Z,30.30
2019-05-10T00:52:41.785Z,29.73
2019-05-10T00:55:18.802Z,29.47
2019-05-10T00:57:42.469Z,31.37
2019-05-10T01:00:12.467Z,28.80
2019-05-10T01:02:41.973Z,27.37
2019-05-10T01:05:11.579Z,29.17
2019-05-10T01:07:41.052Z,28.37
2019-05-10T01:10:11.333Z,35.03
2019-05-10T01:12:40.890Z,28.70
2019-05-10T01:15:11.650Z,34.10
2019-05-10T01:17:41.171Z,28.93
2019-05-10T01:20:10.833Z,34.93
2019-05-10T01:22:40.336Z,30.37
2019-05-10T01:25:10.041Z,28.00
2019-05-10T01:27:39.502Z,25.73
2019-05-10T01:30:09.659Z,27.27
2019-05-10T01:32:39.204Z,39.07
2019-05-10T01:35:08.685Z,27.90
2019-05-10T01:37:38.153Z,30.13
2019-05-10T01:40:07.818Z,29.20
2019-05-10T01:42:37.369Z,27.37
2019-05-10T01:45:08.384Z,28.17
2019-05-10T01:47:37.870Z,32.80
2019-05-10T01:50:07.485Z,27.80
2019-05-10T01:52:37.006Z,26.63
2019-05-10T01:55:06.538Z,28.60
2019-05-10T01:57:36.028Z,32.00
2019-05-10T02:00:07.559Z,32.60
2019-05-10T02:02:37.118Z,36.90
2019-05-10T02:05:07.129Z,29.80
2019-05-10T02:07:36.657Z,30.53
2019-05-10T02:10:06.680Z,30.13
2019-05-10T02:12:36.228Z,32.10
2019-05-10T02:15:05.903Z,36.43
2019-05-10T02:17:35.367Z,38.30
2019-05-10T02:20:05.396Z,31.83
2019-05-10T02:22:34.964Z,29.97
2019-05-10T02:25:04.973Z,33.67
2019-05-10T02:27:34.483Z,29.37
2019-05-10T02:30:04.720Z,33.13
2019-05-10T02:32:34.266Z,29.50
2019-05-10T02:35:03.744Z,31.57
2019-05-10T02:37:33.204Z,29.83
2019-05-10T02:40:02.672Z,30.23
2019-05-10T02:42:32.208Z,35.43
2019-05-10T02:45:01.669Z,28.53
2019-05-10T02:47:31.265Z,29.80
2019-05-10T02:50:00.951Z,33.90
2019-05-10T02:52:30.749Z,30.27
2019-05-10T02:55:01.211Z,32.37
2019-05-10T02:57:31.006Z,34.90
2019-05-10T03:00:01.705Z,32.33
2019-05-10T03:02:32.084Z,34.73
2019-05-10T03:05:03.056Z,37.60
2019-05-10T03:07:36.285Z,40.37
2019-05-10T03:10:08.452Z,36.37
2019-05-10T03:12:41.640Z,37.50
2019-05-10T03:15:12.558Z,41.20
2019-05-10T03:17:42.516Z,41.67
2019-05-10T03:20:12.946Z,41.20
2019-05-10T03:22:44.579Z,37.17
2019-05-10T03:25:14.650Z,34.33
2019-05-10T03:27:44.335Z,46.30
2019-05-10T03:30:14.146Z,48.43
2019-05-10T03:32:43.734Z,37.47
2019-05-10T03:35:13.502Z,46.97
2019-05-10T03:37:44.526Z,43.27
2019-05-10T03:40:14.119Z,45.90
2019-05-10T03:42:43.845Z,52.33
2019-05-10T03:45:13.529Z,41.60
2019-05-10T03:47:43.032Z,40.40
2019-05-10T03:50:12.796Z,39.53
2019-05-10T03:52:42.312Z,37.57
2019-05-10T03:55:11.885Z,36.43
2019-05-10T03:57:41.435Z,40.60
2019-05-10T04:00:11.332Z,36.90
2019-05-10T04:02:40.831Z,35.80
2019-05-10T04:05:11.737Z,37.73
2019-05-10T04:07:41.346Z,36.00
2019-05-10T04:10:10.897Z,33.00
2019-05-10T04:12:40.464Z,35.77
2019-05-10T04:15:10.936Z,36.53
2019-05-10T04:17:40.459Z,34.87
2019-05-10T04:20:10.635Z,39.60
2019-05-10T04:22:40.165Z,35.33
2019-05-10T04:25:09.934Z,31.43
2019-05-10T04:27:39.478Z,37.00
2019-05-10T04:30:10.473Z,38.47
2019-05-10T04:32:40.013Z,35.43
2019-05-10T04:35:10.088Z,32.80
2019-05-10T04:37:39.695Z,31.77
2019-05-10T04:40:10.018Z,35.97
2019-05-10T04:42:39.567Z,31.07
2019-05-10T04:45:09.347Z,24.33
2019-05-10T04:47:38.855Z,22.83
2019-05-10T04:50:08.512Z,23.67
2019-05-10T04:52:38.068Z,22.73
2019-05-10T04:55:07.678Z,23.33
2019-05-10T04:57:49.780Z,17.93
2019-05-10T05:00:09.359Z,13.80
2019-05-10T05:02:38.916Z,10.67
2019-05-10T05:05:09.011Z,12.20
2019-05-10T05:07:38.495Z,11.10
2019-05-10T05:10:08.147Z,12.83
2019-05-10T05:12:37.616Z,14.30
2019-05-10T05:15:07.402Z,9.73
2019-05-10T05:17:36.924Z,13.37
2019-05-10T05:20:06.643Z,10.10
2019-05-10T05:22:36.185Z,10.90
2019-05-10T05:25:05.642Z,10.17
2019-05-10T05:27:35.253Z,10.37
2019-05-10T05:30:05.170Z,11.20
2019-05-10T05:32:38.690Z,11.50
2019-05-10T05:35:06.305Z,9.57
2019-05-10T05:37:35.839Z,10.90
2019-05-10T05:40:06.008Z,7.83
2019-05-10T05:42:35.527Z,8.90
2019-05-10T05:45:05.211Z,7.10
2019-05-10T05:47:37.542Z,5.90
2019-05-10T05:50:06.207Z,5.50
2019-05-10T05:52:35.739Z,5.53
2019-05-10T05:55:05.858Z,4.57
2019-05-10T05:57:35.331Z,4.87
2019-05-10T06:00:06.748Z,4.40
2019-05-10T06:02:44.246Z,5.43
2019-05-10T06:05:07.748Z,4.90
2019-05-10T06:07:38.471Z,4.57
2019-05-10T06:10:10.285Z,4.90
2019-05-10T06:12:44.651Z,4.30
2019-05-10T06:15:11.082Z,5.23
2019-05-10T06:17:40.570Z,4.60
2019-05-10T06:20:10.493Z,3.13
2019-05-10T06:22:44.016Z,2.53
2019-05-10T06:25:11.207Z,3.30
2019-05-10T06:27:43.035Z,4.30
2019-05-10T06:30:12.666Z,3.47
2019-05-10T06:32:42.147Z,3.20
2019-05-10T06:35:14.016Z,2.90
2019-05-10T06:37:44.020Z,5.10
2019-05-10T06:40:13.724Z,4.27
2019-05-10T06:42:43.191Z,2.97
2019-05-10T06:45:15.793Z,3.23
2019-05-10T06:47:47.933Z,3.37
2019-05-10T06:50:15.791Z,3.50
2019-05-10T06:52:45.275Z,3.03
2019-05-10T06:55:15.270Z,6.83
2019-05-10T06:57:50.565Z,2.97
2019-05-10T07:00:16.034Z,4.20
2019-05-10T07:02:45.527Z,5.30
2019-05-10T07:05:15.079Z,3.00
2019-05-10T07:07:45.520Z,2.70
2019-05-10T07:10:19.215Z,3.13
2019-05-10T07:12:46.701Z,2.80
2019-05-10T07:15:16.445Z,3.17
2019-05-10T07:17:47.361Z,2.87
2019-05-10T07:20:17.195Z,3.00
2019-05-10T07:22:46.701Z,8.40
2019-05-10T07:25:16.243Z,3.40
2019-05-10T07:27:45.727Z,2.80
2019-05-10T07:30:18.118Z,2.70
2019-05-10T07:32:47.582Z,2.80
2019-05-10T07:35:17.120Z,2.87
2019-05-10T07:37:47.629Z,2.80
2019-05-10T07:40:17.785Z,3.50
2019-05-10T07:42:47.282Z,2.50
2019-05-10T07:45:18.705Z,2.80
2019-05-10T07:47:48.071Z,3.07
2019-05-10T07:50:17.558Z,6.20
2019-05-10T07:52:47.019Z,6.77
2019-05-10T07:55:18.564Z,3.40
2019-05-10T07:57:47.694Z,2.40
2019-05-10T08:00:17.715Z,2.43
2019-05-10T08:02:52.699Z,2.70
2019-05-10T08:05:18.603Z,3.60
2019-05-10T08:07:49.489Z,2.47
2019-05-10T08:10:21.458Z,2.50
2019-05-10T08:12:50.356Z,2.30
2019-05-10T08:15:24.871Z,2.70
2019-05-10T08:17:51.185Z,2.57
2019-05-10T08:20:38.234Z,2.40
2019-05-10T08:22:52.530Z,1.80
2019-05-10T08:25:23.035Z,2.43
2019-05-10T08:27:55.295Z,2.33
2019-05-10T08:30:42.578Z,2.33
2019-05-10T08:33:13.973Z,1.50
2019-05-10T08:35:45.850Z,2.03
2019-05-10T08:38:13.060Z,2.93
2019-05-10T08:40:43.042Z,1.93
2019-05-10T08:43:16.103Z,2.17
2019-05-10T08:45:49.250Z,2.07
2019-05-10T08:48:15.513Z,2.23
2019-05-10T08:50:53.484Z,1.90
2019-05-10T08:53:16.760Z,4.37
2019-05-10T08:55:49.435Z,2.87
2019-05-10T09:01:20.421Z,2.30
2019-05-10T09:03:37.536Z,3.47
2019-05-10T09:06:11.805Z,4.17
2019-05-10T09:08:38.204Z,2.80
2019-05-10T09:11:07.688Z,2.27
2019-05-10T09:13:41.192Z,2.80
2019-05-10T09:16:08.379Z,2.20
2019-05-10T09:18:42.684Z,2.70
2019-05-10T09:21:10.686Z,3.30
2019-05-10T09:23:42.487Z,1.90
2019-05-10T09:26:16.229Z,2.37
2019-05-10T09:28:42.682Z,2.60
2019-05-10T09:31:22.803Z,2.30
2019-05-10T09:33:49.788Z,3.27
2019-05-10T09:36:14.623Z,4.20
2019-05-10T09:38:46.320Z,2.93
2019-05-10T09:41:15.290Z,3.07
2019-05-10T09:43:49.172Z,3.10
2019-05-10T09:46:16.155Z,2.83
2019-05-10T09:48:45.643Z,2.20
2019-05-10T09:51:19.008Z,3.47
2019-05-10T09:53:48.529Z,3.07
2019-05-10T09:56:17.593Z,2.20
2019-05-10T09:58:48.358Z,2.20
2019-05-10T10:01:21.602Z,2.80
2019-05-10T10:03:49.221Z,3.20
2019-05-10T10:06:18.711Z,2.73
2019-05-10T10:08:51.345Z,2.33
2019-05-10T10:11:19.366Z,2.70
2019-05-10T10:13:57.026Z,2.40
2019-05-10T10:16:20.273Z,2.60
2019-05-10T10:18:49.825Z,2.40
2019-05-10T10:21:30.658Z,2.43
2019-05-10T10:23:50.491Z,4.90
2019-05-10T10:26:22.326Z,3.43
2019-05-10T10:28:55.187Z,2.83
2019-05-10T10:31:29.671Z,3.00
2019-05-10T10:33:58.010Z,2.80
2019-05-10T10:36:27.256Z,2.47
2019-05-10T10:38:56.203Z,4.73
2019-05-10T10:41:30.928Z,3.53
2019-05-10T10:43:58.315Z,3.60
2019-05-10T10:46:28.283Z,1.93
2019-05-10T10:48:57.818Z,2.20
2019-05-10T10:51:32.065Z,2.30
2019-05-10T10:53:58.479Z,2.13
2019-05-10T10:56:27.973Z,2.20
2019-05-10T10:58:58.036Z,2.03
2019-05-10T11:01:37.828Z,2.40
2019-05-10T11:04:03.685Z,2.07
2019-05-10T11:06:30.554Z,3.33
2019-05-10T11:09:01.730Z,1.77
2019-05-10T11:11:38.914Z,4.70
2019-05-10T11:14:07.375Z,2.77
2019-05-10T11:16:33.903Z,2.90
2019-05-10T11:19:09.172Z,2.70
2019-05-10T11:21:34.643Z,2.60
2019-05-10T11:24:04.158Z,2.50
2019-05-10T11:26:36.760Z,3.20
2019-05-10T11:29:04.922Z,3.17
2019-05-10T11:31:34.428Z,2.60
2019-05-10T11:34:06.047Z,3.93
2019-05-10T11:36:35.302Z,2.30
2019-05-10T11:39:06.366Z,2.70
2019-05-10T11:41:35.924Z,1.93
2019-05-10T11:44:08.931Z,2.90
2019-05-10T11:46:36.686Z,2.47
2019-05-10T11:49:06.158Z,2.10
2019-05-10T11:51:35.681Z,2.10
2019-05-10T11:54:05.287Z,3.27
2019-05-10T11:56:34.802Z,2.07
2019-05-10T11:59:05.434Z,4.20
2019-05-10T12:01:35.566Z,1.80
2019-05-10T12:04:05.324Z,1.60
2019-05-10T12:06:41.131Z,2.37
2019-05-10T12:09:08.039Z,2.20
2019-05-10T12:11:43.735Z,2.50
2019-05-10T12:14:13.590Z,2.10
2019-05-10T12:16:42.083Z,3.13
2019-05-10T12:19:19.878Z,5.63
2019-05-10T12:21:42.575Z,1.30
2019-05-10T12:24:31.244Z,1.43
2019-05-10T12:29:17.129Z,2.70
2019-05-10T12:31:47.476Z,1.47
2019-05-10T12:34:17.071Z,1.53
2019-05-10T12:36:46.529Z,1.43
2019-05-10T12:39:16.226Z,2.00
2019-05-10T12:41:49.671Z,1.40
2019-05-10T12:44:17.063Z,1.40
2019-05-10T12:46:46.563Z,1.40
2019-05-10T12:49:16.026Z,2.40
2019-05-10T12:51:45.532Z,1.40
2019-05-10T12:54:18.465Z,2.80
2019-05-10T12:56:46.331Z,1.63
2019-05-10T12:59:15.825Z,1.13
2019-05-10T13:01:45.312Z,1.40
2019-05-10T13:04:16.949Z,1.40
2019-05-10T13:06:46.037Z,1.10
2019-05-10T13:09:15.581Z,2.47
2019-05-10T13:11:45.082Z,1.60
2019-05-10T13:14:14.544Z,1.80
2019-05-10T13:16:44.227Z,1.43
2019-05-10T13:19:19.993Z,1.53
2019-05-10T13:21:45.341Z,1.83
2019-05-10T13:24:14.818Z,2.00
2019-05-10T13:26:44.303Z,3.07
2019-05-10T13:29:13.793Z,2.70
2019-05-10T13:31:44.402Z,1.90
2019-05-10T13:34:16.369Z,1.83
2019-05-10T13:36:45.907Z,2.60
2019-05-10T13:39:19.032Z,1.60
2019-05-10T13:41:46.629Z,1.37
2019-05-10T13:44:16.102Z,1.40
2019-05-10T13:46:45.582Z,1.60
2019-05-10T13:49:15.036Z,2.23
2019-05-10T13:51:46.014Z,2.73
2019-05-10T13:54:15.502Z,1.73
2019-05-10T13:56:51.675Z,2.17
2019-05-10T13:59:18.013Z,1.80
2019-05-10T14:01:49.681Z,2.07
2019-05-10T14:04:18.676Z,1.80
2019-05-10T14:06:48.258Z,1.97
2019-05-10T14:09:20.802Z,3.30
2019-05-10T14:11:49.022Z,4.47
2019-05-10T14:14:20.402Z,2.20
2019-05-10T14:16:49.766Z,3.00
2019-05-10T14:19:22.831Z,2.23
2019-05-10T14:21:50.521Z,1.83
2019-05-10T14:24:19.981Z,2.40
2019-05-10T14:26:51.465Z,2.47
2019-05-10T14:29:33.304Z,2.20
2019-05-10T14:31:52.444Z,4.50
2019-05-10T14:34:21.984Z,3.40
2019-05-10T14:36:51.518Z,1.77
2019-05-10T14:39:21.035Z,2.00
2019-05-10T14:41:51.423Z,2.30
2019-05-10T14:44:21.932Z,2.47
2019-05-10T14:46:51.470Z,2.03
2019-05-10T14:49:20.937Z,2.10
2019-05-10T14:51:59.058Z,1.57
2019-05-10T14:54:21.965Z,5.67
2019-05-10T14:56:53.948Z,1.90
2019-05-10T14:59:22.684Z,2.17
2019-05-10T15:01:52.195Z,4.03
2019-05-10T15:04:43.906Z,1.90
2019-05-10T15:06:52.947Z,1.90
2019-05-10T15:09:24.182Z,1.93
2019-05-10T15:11:53.969Z,2.00
2019-05-10T15:14:23.557Z,5.90
2019-05-10T15:16:53.099Z,2.20
2019-05-10T15:19:26.305Z,2.63
2019-05-10T15:21:53.842Z,2.07
2019-05-10T15:24:23.646Z,2.43
2019-05-10T15:26:53.201Z,2.50
2019-05-10T15:29:24.662Z,2.57
2019-05-10T15:31:53.893Z,2.50
2019-05-10T15:34:23.379Z,4.93
2019-05-10T15:36:53.055Z,2.70
2019-05-10T15:39:22.966Z,2.23
2019-05-10T15:41:59.072Z,2.93
2019-05-10T15:44:31.055Z,2.47
2019-05-10T15:46:56.698Z,2.97
2019-05-10T15:49:26.191Z,2.00
2019-05-10T15:52:15.182Z,3.30
2019-05-10T15:54:26.979Z,1.83
2019-05-10T15:56:56.643Z,3.63
2019-05-10T15:59:26.151Z,3.90
2019-05-10T16:01:55.665Z,3.43
2019-05-10T16:04:25.219Z,3.27
2019-05-10T16:06:54.793Z,5.47
2019-05-10T16:09:25.810Z,3.07
2019-05-10T16:11:55.966Z,3.00
2019-05-10T16:14:26.679Z,3.43
2019-05-10T16:16:56.200Z,2.80
2019-05-10T16:19:25.812Z,3.83
2019-05-10T16:21:58.018Z,4.23
2019-05-10T16:24:28.087Z,2.70
2019-05-10T16:27:00.097Z,4.57
2019-05-10T16:29:33.665Z,3.40
2019-05-10T16:32:00.146Z,3.37
2019-05-10T16:34:32.360Z,3.90
2019-05-10T16:37:01.020Z,2.73
2019-05-10T16:39:30.480Z,5.73
2019-05-10T16:42:00.031Z,4.67
2019-05-10T16:44:29.573Z,6.40
2019-05-10T16:46:59.137Z,2.63
2019-05-10T16:49:28.689Z,2.90
2019-05-10T16:51:58.188Z,3.50
2019-05-10T16:54:27.679Z,6.00
2019-05-10T16:57:01.467Z,5.40
2019-05-10T16:59:29.624Z,4.10
2019-05-10T17:02:04.346Z,4.00
2019-05-10T17:04:32.203Z,3.67
2019-05-10T17:07:02.150Z,5.03
2019-05-10T17:09:31.627Z,2.90
2019-05-10T17:12:01.141Z,2.30
2019-05-10T17:14:30.625Z,3.20
2019-05-10T17:17:00.248Z,2.57
2019-05-10T17:19:34.151Z,4.17
2019-05-10T17:22:00.993Z,2.80
2019-05-10T17:24:30.549Z,4.33
2019-05-10T17:27:00.059Z,4.17
2019-05-10T17:29:29.533Z,4.10
2019-05-10T17:31:59.009Z,2.70
2019-05-10T17:34:29.722Z,3.07
2019-05-10T17:36:59.775Z,3.53
2019-05-10T17:39:32.021Z,4.37
2019-05-10T17:42:03.220Z,4.53
2019-05-10T17:44:31.853Z,3.37
2019-05-10T17:47:01.412Z,3.17
2019-05-10T17:49:30.958Z,6.33
2019-05-10T17:52:00.464Z,5.93
2019-05-10T17:54:33.658Z,3.87
2019-05-10T17:57:01.094Z,5.30
2019-05-10T17:59:30.616Z,4.97
2019-05-10T18:02:00.134Z,3.30
2019-05-10T18:04:29.659Z,7.97
2019-05-10T18:06:59.172Z,5.87
2019-05-10T18:09:28.726Z,3.03
2019-05-10T18:11:58.252Z,6.80
2019-05-10T18:14:29.610Z,4.13
2019-05-10T18:16:59.036Z,4.53
2019-05-10T18:19:28.515Z,5.37
2019-05-10T18:22:00.736Z,5.50
2019-05-10T18:24:30.258Z,4.77
2019-05-10T18:27:00.569Z,4.43
2019-05-10T18:29:30.069Z,3.50
2019-05-10T18:31:59.546Z,6.17
2019-05-10T18:34:35.257Z,4.80
2019-05-10T18:37:00.735Z,4.87
2019-05-10T18:39:30.258Z,3.43
2019-05-10T18:41:59.705Z,2.77
2019-05-10T18:44:29.269Z,3.17
2019-05-10T18:46:58.748Z,3.13
2019-05-10T18:49:28.367Z,4.50
2019-05-10T18:52:04.247Z,3.43
2019-05-10T18:54:29.177Z,4.60
2019-05-10T18:57:04.781Z,3.10
2019-05-10T18:59:29.891Z,2.83
2019-05-10T19:01:59.393Z,3.70
2019-05-10T19:04:28.950Z,4.30
2019-05-10T19:07:09.334Z,3.70
2019-05-10T19:09:29.749Z,4.73
2019-05-10T19:11:59.525Z,4.40
2019-05-10T19:14:29.999Z,3.50
2019-05-10T19:17:03.898Z,4.33
2019-05-10T19:19:35.119Z,3.37
2019-05-10T19:22:08.691Z,4.93
2019-05-10T19:24:34.321Z,5.23
2019-05-10T19:27:07.462Z,5.03
2019-05-10T19:29:38.917Z,5.53
2019-05-10T19:32:11.457Z,2.90
2019-05-10T19:34:37.654Z,4.03
2019-05-10T19:37:07.179Z,3.33
2019-05-10T19:39:36.863Z,4.47
2019-05-10T19:42:06.435Z,2.40
2019-05-10T19:44:40.362Z,2.47
2019-05-10T19:47:11.166Z,4.07
2019-05-10T19:49:38.489Z,2.00
2019-05-10T19:52:07.958Z,3.50
2019-05-10T19:54:37.465Z,4.23
2019-05-10T19:57:15.358Z,3.17
2019-05-10T19:59:38.256Z,2.87
2019-05-10T20:02:07.790Z,2.50
2019-05-10T20:04:37.317Z,4.83
2019-05-10T20:07:06.933Z,5.00
2019-05-10T20:09:36.535Z,3.20
2019-05-10T20:12:06.014Z,3.00
2019-05-10T20:14:35.858Z,4.53
2019-05-10T20:17:05.488Z,6.33
2019-05-10T20:19:34.949Z,5.00
2019-05-10T20:22:04.470Z,6.30
2019-05-10T20:24:34.021Z,4.10
2019-05-10T20:27:03.915Z,3.67
2019-05-10T20:29:33.391Z,3.93
2019-05-10T20:32:02.960Z,3.20
2019-05-10T20:34:32.429Z,3.63
2019-05-10T20:37:01.950Z,2.67
2019-05-10T20:39:31.433Z,3.80
2019-05-10T20:42:00.934Z,2.70
2019-05-10T20:44:30.479Z,4.13
2019-05-10T20:46:59.988Z,4.23
2019-05-10T20:49:29.477Z,5.03
2019-05-10T20:51:59.282Z,3.03
2019-05-10T20:54:28.812Z,4.27
2019-05-10T20:56:58.418Z,2.60
2019-05-10T20:59:27.910Z,4.10
2019-05-10T21:01:57.374Z,2.40
2019-05-10T21:04:26.840Z,2.60
2019-05-10T21:06:56.314Z,3.07
2019-05-10T21:09:25.826Z,2.63
2019-05-10T21:11:55.369Z,5.97
2019-05-10T21:14:24.868Z,2.10
2019-05-10T21:16:54.361Z,2.03
2019-05-10T21:19:23.846Z,4.07
2019-05-10T21:21:53.363Z,2.10
2019-05-10T21:24:23.069Z,3.57
2019-05-10T21:26:52.559Z,4.03
2019-05-10T21:29:22.041Z,3.13
2019-05-10T21:31:51.578Z,1.93
2019-05-10T21:34:21.080Z,2.20
2019-05-10T21:36:50.602Z,2.30
2019-05-10T21:39:20.145Z,2.00
2019-05-10T21:41:49.702Z,3.07
2019-05-10T21:44:19.229Z,2.10
2019-05-10T21:46:48.846Z,1.90
2019-05-10T21:49:18.362Z,3.87
2019-05-10T21:51:47.813Z,3.57
2019-05-10T21:54:17.338Z,2.70
2019-05-10T21:56:46.879Z,2.23
2019-05-10T21:59:16.454Z,1.97
2019-05-10T22:01:45.974Z,1.70
2019-05-10T22:04:15.532Z,1.83
2019-05-10T22:06:45.020Z,2.97
2019-05-10T22:09:14.585Z,1.97
2019-05-10T22:11:44.091Z,2.03
2019-05-10T22:14:13.588Z,2.00
2019-05-10T22:16:43.101Z,3.17
2019-05-10T22:19:12.656Z,2.03
2019-05-10T22:21:42.120Z,2.00
2019-05-10T22:24:12.035Z,1.60
2019-05-10T22:26:41.527Z,2.60
2019-05-10T22:29:11.031Z,2.13
2019-05-10T22:31:40.578Z,3.87
2019-05-10T22:34:10.063Z,3.80
2019-05-10T22:36:39.611Z,3.23
2019-05-10T22:39:09.178Z,2.10
2019-05-10T22:41:38.661Z,2.63
2019-05-10T22:44:08.207Z,1.70
2019-05-10T22:46:37.711Z,1.97
2019-05-10T22:49:07.281Z,2.67
2019-05-10T22:51:36.804Z,1.97
2019-05-10T22:54:06.399Z,1.90
2019-05-10T22:56:35.900Z,2.03
2019-05-10T22:59:05.474Z,3.60
2019-05-10T23:01:34.992Z,3.60
2019-05-10T23:04:04.657Z,2.07
2019-05-10T23:06:34.154Z,3.23
2019-05-10T23:09:04.385Z,2.33
2019-05-10T23:11:33.889Z,3.93
2019-05-10T23:14:03.417Z,2.87
2019-05-10T23:16:32.985Z,3.40
2019-05-10T23:19:02.545Z,2.87
2019-05-10T23:21:32.036Z,3.33
2019-05-10T23:24:06.633Z,6.10
2019-05-10T23:26:47.368Z,2.77
2019-05-10T23:29:16.905Z,2.37
2019-05-10T23:31:46.360Z,1.50
2019-05-10T23:34:16.069Z,2.87
2019-05-10T23:36:45.797Z,3.50
2019-05-10T23:39:15.526Z,1.97
2019-05-10T23:41:45.316Z,1.70
2019-05-10T23:44:15.013Z,2.53
2019-05-10T23:46:44.762Z,1.37
2019-05-10T23:49:14.450Z,2.37
2019-05-10T23:51:44.274Z,1.97
2019-05-10T23:54:14.033Z,1.70
2019-05-10T23:56:43.793Z,1.70
2019-05-10T23:59:13.473Z,2.13
